Time;durP1;ratioP1;P1;durP2;ratioP2;P2;SDS_P1;SDS_P2;PMS_P1;PMS_P2;Temp;Humidity;BMP_temperature;BMP_pressure;BME280_temperature;BME280_humidity;BME280_pressure;Samples;Min_cycle;Max_cycle;Signal;HPM_P1;HPM_P2
2024/02/20 00:00:46;;;;;;;2.92;0.95;;;;;;;25.36;36.88;101092.25;7397780;19;20350;-50
2024/02/20 00:03:13;;;;;;;0.68;0.35;;;;;;;23.36;38.74;101094.63;7400212;19;20041;-50
2024/02/20 00:05:39;;;;;;;6.00;1.30;;;;;;;24.96;37.54;101100.00;7395453;19;20022;-49
2024/02/20 00:08:11;;;;;;;13.25;1.77;;;;;;;23.79;38.30;101092.50;7398215;19;20007;-49
2024/02/20 00:10:38;;;;;;;2.20;1.30;;;;;;;24.98;36.86;101085.97;7397445;19;20362;-49
2024/02/20 00:13:04;;;;;;;3.83;1.75;;;;;;;23.78;38.43;101085.28;7403758;19;20019;-49
2024/02/20 00:15:30;;;;;;;9.40;2.10;;;;;;;25.67;36.30;101082.00;7396494;19;20037;-50
2024/02/20 00:17:57;;;;;;;2.28;0.73;;;;;;;26.20;35.27;101080.56;7399823;19;20029;-50
2024/02/20 00:20:23;;;;;;;0.10;0.10;;;;;;;24.10;37.47;101083.28;7396318;19;20026;-49
2024/02/20 00:22:49;;;;;;;0.30;0.30;;;;;;;23.15;39.04;101074.41;7399391;19;20047;-50
2024/02/20 00:25:17;;;;;;;0.47;0.47;;;;;;;25.17;36.56;101072.38;7397307;19;20010;-50
2024/02/20 00:27:43;;;;;;;3.20;0.80;;;;;;;25.58;35.73;101075.44;7398004;19;20011;-50
2024/02/20 00:30:10;;;;;;;0.95;0.90;;;;;;;23.72;37.97;101070.34;7398828;19;20026;-50
2024/02/20 00:32:36;;;;;;;0.80;0.68;;;;;;;25.00;36.34;101054.84;7398242;19;20015;-50
2024/02/20 00:35:04;;;;;;;1.10;0.47;;;;;;;25.21;36.11;101047.16;7395402;19;20018;-50
2024/02/20 00:37:30;;;;;;;0.63;0.63;;;;;;;24.96;36.11;101045.06;7397891;19;20018;-50
2024/02/20 00:39:56;;;;;;;9.60;1.70;;;;;;;23.82;37.50;101045.91;7395554;19;20010;-50
2024/02/20 00:42:22;;;;;;;0.75;0.75;;;;;;;23.25;38.16;101046.38;7395211;19;20344;-50
2024/02/20 00:44:49;;;;;;;2.08;1.88;;;;;;;23.01;38.27;101040.72;7393740;19;20014;-50
2024/02/20 00:47:15;;;;;;;1.27;1.10;;;;;;;21.65;40.02;101051.34;7394852;19;20390;-50
2024/02/20 00:49:41;;;;;;;0.55;0.55;;;;;;;21.88;39.95;101044.28;7394103;19;20364;-50
2024/02/20 00:52:07;;;;;;;2.70;0.95;;;;;;;21.83;40.26;101043.00;7398446;19;20032;-50
2024/02/20 00:54:40;;;;;;;16.48;0.85;;;;;;;21.88;40.35;101038.59;7393342;19;20070;-50
2024/02/20 00:57:07;;;;;;;0.63;0.63;;;;;;;22.19;39.64;101035.28;7395999;19;20016;-50
2024/02/20 00:59:34;;;;;;;0.30;0.30;;;;;;;22.06;39.64;101031.53;7392724;19;20022;-50
2024/02/20 01:02:00;;;;;;;0.68;0.68;;;;;;;21.57;40.44;101036.19;7396623;19;20021;-50
2024/02/20 01:04:26;;;;;;;2.83;1.10;;;;;;;21.10;41.38;101033.28;7394575;19;20021;-50
2024/02/20 01:06:53;;;;;;;11.60;0.68;;;;;;;22.48;39.46;101023.16;7394810;19;20027;-50
2024/02/20 01:09:20;;;;;;;0.30;0.30;;;;;;;22.26;39.77;101011.25;7394244;19;20031;-50
2024/02/20 01:11:46;;;;;;;6.93;0.75;;;;;;;22.55;39.28;101011.22;7395637;19;20014;-50
2024/02/20 01:14:12;;;;;;;1.17;0.73;;;;;;;24.10;37.30;101005.69;7393367;19;20019;-50
2024/02/20 01:16:38;;;;;;;4.00;0.73;;;;;;;26.69;34.11;100995.66;7393583;19;20029;-50
2024/02/20 01:19:06;;;;;;;5.93;0.47;;;;;;;27.96;32.38;100990.38;7393723;19;20022;-50
2024/02/20 01:21:33;;;;;;;0.73;0.73;;;;;;;28.31;31.99;100986.59;7394135;19;20420;-50
2024/02/20 01:23:59;;;;;;;0.22;0.22;;;;;;;27.83;32.56;100988.41;7393427;19;20014;-50
2024/02/20 01:26:26;;;;;;;4.28;0.50;;;;;;;26.06;33.60;100981.97;7392848;19;20025;-50
2024/02/20 01:28:52;;;;;;;0.40;0.40;;;;;;;25.37;34.72;100974.75;7392571;19;20386;-50
2024/02/20 01:31:19;;;;;;;4.65;0.75;;;;;;;26.22;33.70;100975.88;7394491;19;20018;-50
2024/02/20 01:33:45;;;;;;;19.17;2.17;;;;;;;27.37;32.92;100966.72;7397707;19;20014;-49
2024/02/20 01:36:11;;;;;;;0.40;0.20;;;;;;;28.30;31.75;100968.66;7394145;19;20647;-49
2024/02/20 01:38:37;;;;;;;3.50;0.47;;;;;;;28.64;30.84;100964.63;7392081;19;20335;-49
2024/02/20 01:41:03;;;;;;;0.30;0.30;;;;;;;28.84;30.73;100952.16;7394157;19;20033;-50
2024/02/20 01:43:29;;;;;;;0.85;0.30;;;;;;;28.79;30.81;100962.47;7392832;19;20040;-50
2024/02/20 01:45:56;;;;;;;2.50;0.47;;;;;;;28.32;31.32;100953.75;7393316;19;20038;-50
2024/02/20 01:48:22;;;;;;;0.10;0.10;;;;;;;28.60;30.68;100955.63;7392686;19;20042;-50
2024/02/20 01:50:48;;;;;;;7.78;0.50;;;;;;;28.45;30.67;100951.44;7392152;19;20014;-50
2024/02/20 01:53:14;;;;;;;0.40;0.40;;;;;;;28.59;30.80;100949.13;7393048;19;20066;-50
2024/02/20 01:55:41;;;;;;;21.25;0.80;;;;;;;28.80;30.70;100946.03;7394186;19;20014;-50
2024/02/20 01:58:07;;;;;;;8.07;0.93;;;;;;;29.22;30.12;100947.06;7392984;19;20034;-50
2024/02/20 02:00:33;;;;;;;0.20;0.20;;;;;;;28.97;29.92;100949.06;7393831;19;20072;-49
2024/02/20 02:02:59;;;;;;;0.90;0.35;;;;;;;29.35;29.85;100946.03;7396472;19;20013;-50
2024/02/20 02:05:25;;;;;;;0.38;0.32;;;;;;;29.67;29.61;100940.34;7391243;19;20033;-50
2024/02/20 02:07:53;;;;;;;0.30;0.30;;;;;;;29.92;28.82;100933.28;7391929;19;20006;-50
2024/02/20 02:10:20;;;;;;;14.27;1.58;;;;;;;30.29;28.71;100927.81;7389136;19;20050;-50
2024/02/20 02:13:09;;;;;;;0.60;0.60;;;;;;;30.46;28.14;100930.75;7393105;19;20015;-50
2024/02/20 02:15:48;;;;;;;0.73;0.40;;;;;;;30.03;28.63;100931.28;7393918;19;20074;-54
2024/02/20 02:18:26;;;;;;;1.50;0.17;;;;;;;30.13;28.36;100929.28;7391677;19;20032;-53
2024/02/20 02:20:52;;;;;;;0.98;0.65;;;;;;;30.18;28.59;100925.41;7391602;19;20366;-55
2024/02/20 02:23:18;;;;;;;0.20;0.17;;;;;;;29.89;28.70;100914.34;7391088;19;20014;-53
2024/02/20 02:25:44;;;;;;;0.55;0.32;;;;;;;30.40;28.21;100913.75;7390492;19;20011;-53
2024/02/20 02:28:11;;;;;;;1.35;0.63;;;;;;;30.81;27.82;100911.38;7391026;19;20019;-54
2024/02/20 02:30:37;;;;;;;7.53;1.10;;;;;;;30.56;28.03;100911.44;7391958;19;20010;-54
2024/02/20 02:33:03;;;;;;;0.10;0.10;;;;;;;30.52;27.96;100908.25;7393631;19;20330;-54
2024/02/20 02:35:30;;;;;;;4.60;0.80;;;;;;;31.02;27.59;100909.63;7390956;19;20022;-54
2024/02/20 02:37:57;;;;;;;0.47;0.47;;;;;;;31.83;26.62;100898.91;7390978;19;20391;-54
2024/02/20 02:40:23;;;;;;;14.40;1.55;;;;;;;31.76;27.05;100905.53;7390238;19;20006;-55
2024/02/20 02:42:49;;;;;;;14.77;0.63;;;;;;;32.30;26.20;100904.06;7392926;19;20019;-54
2024/02/20 02:45:15;;;;;;;0.90;0.70;;;;;;;31.84;26.59;100901.16;7390975;19;20014;-54
2024/02/20 02:47:41;;;;;;;2.00;0.75;;;;;;;31.26;27.11;100900.09;7389506;19;20015;-54
2024/02/20 02:50:08;;;;;;;1.23;0.75;;;;;;;31.44;26.83;100877.78;7392096;19;20028;-54
2024/02/20 02:52:34;;;;;;;2.85;0.38;;;;;;;31.07;27.03;100882.69;7392152;19;20403;-54
2024/02/20 02:55:00;;;;;;;0.63;0.63;;;;;;;31.49;27.10;100870.25;7393777;19;20470;-55
2024/02/20 02:57:27;;;;;;;0.93;0.57;;;;;;;32.48;26.19;100867.25;7391737;19;20497;-54
2024/02/20 02:59:53;;;;;;;0.57;0.57;;;;;;;32.53;25.59;100855.38;7391408;19;20010;-54
2024/02/20 03:02:19;;;;;;;4.57;0.45;;;;;;;32.65;25.40;100862.09;7392033;19;20037;-54
2024/02/20 03:04:45;;;;;;;0.68;0.52;;;;;;;32.79;25.81;100854.47;7393450;19;20022;-54
2024/02/20 03:07:12;;;;;;;20.27;1.35;;;;;;;32.61;25.47;100844.47;7390653;19;20015;-54
2024/02/20 03:09:38;;;;;;;3.15;0.35;;;;;;;32.86;25.60;100842.03;7392076;19;20014;-54
2024/02/20 03:12:06;;;;;;;10.70;0.40;;;;;;;33.09;25.22;100843.69;7392035;19;20326;-54
2024/02/20 03:14:32;;;;;;;0.15;0.15;;;;;;;33.56;25.01;100840.66;7391884;19;20423;-58
2024/02/20 03:16:58;;;;;;;2.63;1.80;;;;;;;33.44;24.96;100836.13;7391056;19;20060;-55
2024/02/20 03:19:24;;;;;;;1.38;1.27;;;;;;;33.40;24.85;100824.28;7391157;19;20003;-55
2024/02/20 03:21:50;;;;;;;0.85;0.65;;;;;;;33.56;24.77;100820.44;7391584;19;20350;-54
2024/02/20 03:24:16;;;;;;;8.98;1.33;;;;;;;33.77;24.66;100816.84;7396394;19;20035;-54
2024/02/20 03:26:43;;;;;;;0.30;0.25;;;;;;;33.70;24.57;100811.25;7397912;19;20037;-54
2024/02/20 03:29:09;;;;;;;9.68;0.95;;;;;;;33.81;24.33;100804.81;7399217;19;20011;-54
2024/02/20 03:31:35;;;;;;;0.20;0.20;;;;;;;33.96;24.29;100805.16;7398425;19;20563;-55
2024/02/20 03:34:01;;;;;;;0.20;0.20;;;;;;;33.79;24.53;100795.97;7397677;19;20021;-55
2024/02/20 03:36:27;;;;;;;4.43;0.40;;;;;;;33.63;24.28;100792.75;7402060;19;20022;-54
2024/02/20 03:38:53;;;;;;;1.95;0.75;;;;;;;33.52;24.42;100791.28;7398030;19;20015;-54
2024/02/20 03:41:20;;;;;;;0.30;0.30;;;;;;;33.60;24.50;100782.41;7398488;19;20010;-54
2024/02/20 03:43:46;;;;;;;0.20;0.20;;;;;;;33.41;24.31;100794.03;7397829;19;20015;-54
2024/02/20 03:46:12;;;;;;;4.68;0.20;;;;;;;33.27;24.65;100793.78;7401899;19;20446;-54
2024/02/20 03:48:38;;;;;;;0.38;0.28;;;;;;;33.52;24.35;100784.72;7395422;19;20041;-55
2024/02/20 03:51:04;;;;;;;3.08;1.10;;;;;;;33.37;24.32;100785.84;7397481;19;20074;-54
2024/02/20 03:53:31;;;;;;;0.32;0.32;;;;;;;33.49;23.94;100775.13;7397408;19;20381;-54
2024/02/20 03:55:57;;;;;;;0.20;0.20;;;;;;;33.38;24.29;100786.56;7400973;19;20470;-54
2024/02/20 03:58:23;;;;;;;10.40;1.13;;;;;;;32.92;24.33;100780.34;7397564;19;20015;-54
2024/02/20 04:00:49;;;;;;;1.17;0.25;;;;;;;32.82;24.44;100784.00;7395707;19;20384;-54
2024/02/20 04:03:15;;;;;;;3.83;0.38;;;;;;;33.11;24.30;100775.31;7400640;19;20362;-54
2024/02/20 04:05:41;;;;;;;0.20;0.20;;;;;;;32.88;24.35;100775.03;7399958;19;20034;-54
2024/02/20 04:08:08;;;;;;;1.00;0.63;;;;;;;33.09;24.29;100768.63;7394912;19;20037;-54
2024/02/20 04:10:34;;;;;;;5.88;1.38;;;;;;;33.19;24.14;100764.31;7396649;19;20015;-54
2024/02/20 04:13:00;;;;;;;1.00;0.38;;;;;;;33.22;24.26;100763.09;7396304;19;20014;-54
2024/02/20 04:15:27;;;;;;;0.80;0.57;;;;;;;33.33;24.11;100761.69;7398925;19;20011;-55
2024/02/20 04:17:53;;;;;;;2.42;1.10;;;;;;;33.37;23.93;100750.41;7396513;19;20006;-54
2024/02/20 04:20:19;;;;;;;18.85;1.58;;;;;;;32.97;24.34;100754.03;7396806;19;20011;-54
2024/02/20 04:22:45;;;;;;;0.35;0.35;;;;;;;32.87;24.23;100756.97;7395495;19;20025;-54
2024/02/20 04:25:11;;;;;;;5.57;0.82;;;;;;;33.23;24.25;100752.28;7398982;19;20014;-54
2024/02/20 04:27:40;;;;;;;0.17;0.17;;;;;;;33.44;23.93;100756.00;7395436;19;20380;-54
2024/02/20 04:30:08;;;;;;;1.27;0.63;;;;;;;33.63;23.85;100757.31;7397022;19;20011;-54
2024/02/20 04:32:34;;;;;;;2.47;0.90;;;;;;;33.96;23.57;100741.53;7397688;19;20027;-61
2024/02/20 04:35:00;;;;;;;0.60;0.30;;;;;;;34.18;23.25;100753.88;7398574;19;20454;-62
2024/02/20 04:37:26;;;;;;;0.85;0.52;;;;;;;34.49;23.09;100739.31;7396758;19;20011;-56
2024/02/20 04:39:52;;;;;;;1.13;0.85;;;;;;;34.65;22.84;100743.28;7397680;19;20011;-56
2024/02/20 04:42:21;;;;;;;0.22;0.22;;;;;;;34.73;22.89;100735.13;7397718;19;20078;-57
2024/02/20 04:44:49;;;;;;;0.60;0.52;;;;;;;34.78;22.75;100725.31;7398578;19;20092;-57
2024/02/20 04:47:16;;;;;;;6.28;0.82;;;;;;;34.76;22.73;100723.03;7395268;19;20017;-54
2024/02/20 04:49:42;;;;;;;2.35;0.73;;;;;;;34.75;22.71;100717.88;7395753;19;20466;-55
2024/02/20 04:52:09;;;;;;;0.45;0.45;;;;;;;34.76;22.70;100713.63;7395420;19;20032;-55
2024/02/20 04:54:35;;;;;;;3.15;0.82;;;;;;;35.04;22.43;100706.75;7396272;19;20014;-55
2024/02/20 04:57:01;;;;;;;0.17;0.17;;;;;;;35.15;22.49;100700.19;7396287;19;20021;-55
2024/02/20 04:59:27;;;;;;;0.30;0.30;;;;;;;35.33;22.32;100697.66;7396145;19;20010;-55
2024/02/20 05:01:54;;;;;;;0.20;0.20;;;;;;;35.22;22.26;100693.41;7396941;19;20014;-55
2024/02/20 05:04:20;;;;;;;1.15;0.65;;;;;;;35.27;22.20;100698.06;7396208;19;20117;-55
2024/02/20 05:06:46;;;;;;;2.10;1.48;;;;;;;35.29;22.25;100697.44;7395630;19;20011;-55
2024/02/20 05:09:14;;;;;;;4.38;0.63;;;;;;;35.18;22.23;100696.03;7395860;19;20014;-55
2024/02/20 05:11:40;;;;;;;6.30;0.90;;;;;;;35.61;22.05;100705.22;7393842;19;20007;-55
2024/02/20 05:14:06;;;;;;;0.73;0.38;;;;;;;35.42;22.19;100700.44;7395432;19;20010;-55
2024/02/20 05:16:33;;;;;;;0.32;0.10;;;;;;;35.12;22.43;100695.69;7400320;19;20006;-54
2024/02/20 05:18:59;;;;;;;2.20;0.43;;;;;;;35.02;22.68;100692.88;7394314;19;20560;-53
2024/02/20 05:21:25;;;;;;;0.82;0.47;;;;;;;34.45;23.27;100695.63;7395181;19;20024;-54
2024/02/20 05:23:51;;;;;;;0.25;0.25;;;;;;;34.75;23.01;100691.84;7394284;19;20359;-54
2024/02/20 05:26:17;;;;;;;10.77;1.33;;;;;;;34.91;23.38;100692.88;7398236;19;20011;-53
2024/02/20 05:28:43;;;;;;;0.80;0.80;;;;;;;35.09;23.17;100688.22;7392808;19;20398;-54
2024/02/20 05:31:30;;;;;;;0.20;0.20;;;;;;;35.57;22.62;100688.34;7394001;19;20020;-54
2024/02/20 05:33:57;;;;;;;0.13;0.13;;;;;;;35.48;22.46;100680.53;7394747;19;20086;-54
2024/02/20 05:36:31;;;;;;;19.60;1.00;;;;;;;35.44;22.53;100680.28;7398175;19;20019;-55
2024/02/20 05:39:01;;;;;;;0.40;0.40;;;;;;;35.47;22.93;100672.47;7395540;19;20022;-54
2024/02/20 05:41:28;;;;;;;3.20;0.77;;;;;;;35.52;22.88;100662.66;7394967;19;20023;-54
2024/02/20 05:43:57;;;;;;;2.40;1.10;;;;;;;35.53;22.62;100655.47;7393650;19;20014;-54
2024/02/20 05:46:30;;;;;;;8.50;0.63;;;;;;;35.59;22.62;100636.28;7395227;19;20015;-54
2024/02/20 05:48:57;;;;;;;0.30;0.10;;;;;;;35.52;22.48;100640.22;7393098;19;20010;-54
2024/02/20 05:51:24;;;;;;;0.68;0.35;;;;;;;35.18;22.52;100635.22;7391751;19;20022;-54
2024/02/20 05:53:51;;;;;;;0.88;0.52;;;;;;;35.19;22.67;100642.53;7392504;19;20022;-55
2024/02/20 05:56:19;;;;;;;2.88;0.43;;;;;;;35.30;22.50;100641.78;7395383;19;20014;-54
2024/02/20 05:58:45;;;;;;;2.65;0.95;;;;;;;35.41;22.51;100643.88;7391739;19;20007;-54
2024/02/20 06:01:13;;;;;;;0.10;0.10;;;;;;;35.39;23.06;100640.84;7393498;19;20461;-54
2024/02/20 06:03:40;;;;;;;2.08;0.75;;;;;;;35.38;23.10;100633.56;7395096;19;20017;-54
2024/02/20 06:06:07;;;;;;;0.52;0.20;;;;;;;34.97;23.29;100632.44;7391005;19;20021;-55
2024/02/20 06:08:34;;;;;;;1.05;0.50;;;;;;;34.96;23.63;100636.72;7394618;19;20014;-54
2024/02/20 06:11:00;;;;;;;5.35;0.85;;;;;;;35.30;23.44;100627.28;7392441;19;20499;-54
2024/02/20 06:13:26;;;;;;;0.20;0.20;;;;;;;35.37;23.54;100620.44;7391874;19;20018;-54
2024/02/20 06:15:53;;;;;;;0.10;0.10;;;;;;;35.47;23.33;100621.06;7391138;19;20571;-54
2024/02/20 06:18:19;;;;;;;0.55;0.55;;;;;;;35.45;23.59;100618.06;7391553;19;20029;-54
2024/02/20 06:20:46;;;;;;;1.52;0.70;;;;;;;35.00;23.88;100620.38;7395645;19;20088;-54
2024/02/20 06:23:12;;;;;;;0.28;0.28;;;;;;;35.01;23.89;100621.13;7392856;19;20019;-56
2024/02/20 06:25:44;;;;;;;5.60;0.77;;;;;;;35.15;23.64;100619.09;7393148;19;20011;-56
2024/02/20 06:28:14;;;;;;;1.55;0.85;;;;;;;35.18;23.66;100606.25;7391695;19;20491;-56
2024/02/20 06:30:41;;;;;;;0.30;0.10;;;;;;;35.23;23.95;100610.91;7392199;19;20019;-55
2024/02/20 06:33:08;;;;;;;14.70;0.65;;;;;;;35.25;23.73;100605.25;7395954;19;20007;-57
2024/02/20 06:35:34;;;;;;;10.90;3.03;;;;;;;35.22;23.84;100606.50;7391418;19;20021;-55
2024/02/20 06:38:00;;;;;;;7.68;2.83;;;;;;;35.23;24.21;100602.22;7392884;19;20014;-55
2024/02/20 06:40:26;;;;;;;1.65;0.82;;;;;;;35.08;24.18;100599.84;7390978;19;20014;-55
2024/02/20 06:42:53;;;;;;;0.50;0.50;;;;;;;35.16;24.21;100591.66;7390912;19;20018;-55
2024/02/20 06:45:19;;;;;;;1.15;0.50;;;;;;;35.27;24.21;100590.13;7392318;19;20018;-55
2024/02/20 06:47:48;;;;;;;0.65;0.30;;;;;;;35.38;24.35;100593.00;7391240;19;20006;-55
2024/02/20 06:50:14;;;;;;;0.25;0.20;;;;;;;35.53;24.23;100583.78;7392377;19;20488;-55
2024/02/20 06:52:43;;;;;;;0.43;0.38;;;;;;;35.53;24.24;100595.38;7392467;19;20402;-55
2024/02/20 06:55:09;;;;;;;0.73;0.50;;;;;;;35.94;23.91;100586.13;7392312;19;20096;-55
2024/02/20 06:57:39;;;;;;;4.75;0.90;;;;;;;36.27;23.59;100589.50;7399899;19;20017;-55
2024/02/20 07:00:13;;;;;;;3.15;0.85;;;;;;;35.96;23.79;100583.34;7398766;19;20017;-54
2024/02/20 07:02:43;;;;;;;0.35;0.28;;;;;;;35.79;23.82;100573.72;7401750;19;20360;-54
2024/02/20 07:05:11;;;;;;;0.10;0.10;;;;;;;35.70;23.90;100557.25;7399065;19;20010;-55
2024/02/20 07:07:38;;;;;;;0.38;0.38;;;;;;;36.05;23.85;100548.38;7399115;19;20010;-54
2024/02/20 07:10:06;;;;;;;0.57;0.43;;;;;;;35.87;23.75;100538.63;7398867;19;20466;-54
2024/02/20 07:12:33;;;;;;;5.88;0.95;;;;;;;35.66;24.07;100545.41;7403068;19;20025;-54
2024/02/20 07:15:01;;;;;;;1.75;0.63;;;;;;;35.80;23.91;100545.47;7397764;19;20466;-55
2024/02/20 07:17:28;;;;;;;3.58;1.05;;;;;;;35.90;23.96;100551.09;7400791;19;20010;-55
2024/02/20 07:19:55;;;;;;;0.40;0.40;;;;;;;35.94;23.86;100551.31;7399151;19;20017;-54
2024/02/20 07:22:22;;;;;;;0.22;0.20;;;;;;;36.75;23.41;100556.59;7398709;19;20378;-55
2024/02/20 07:24:48;;;;;;;6.82;0.63;;;;;;;37.28;22.89;100548.47;7398645;19;20015;-55
2024/02/20 07:27:14;;;;;;;1.63;1.52;;;;;;;37.35;22.84;100535.81;7400740;19;20356;-55
2024/02/20 07:29:42;;;;;;;11.43;0.70;;;;;;;37.39;22.78;100542.56;7398270;19;20007;-55
2024/02/20 07:32:09;;;;;;;0.50;0.45;;;;;;;37.28;23.08;100537.63;7398340;19;20364;-55
2024/02/20 07:34:37;;;;;;;4.28;1.27;;;;;;;37.24;22.84;100544.00;7398643;19;20026;-54
2024/02/20 07:37:04;;;;;;;1.38;0.47;;;;;;;37.77;22.49;100537.94;7396349;19;20018;-54
2024/02/20 07:39:30;;;;;;;0.20;0.13;;;;;;;38.00;22.60;100533.97;7400060;19;20021;-55
2024/02/20 07:41:56;;;;;;;1.27;0.30;;;;;;;37.39;22.81;100527.28;7398222;19;20026;-55
2024/02/20 07:44:22;;;;;;;12.25;1.02;;;;;;;37.15;22.96;100530.44;7397370;19;20416;-55
2024/02/20 07:46:48;;;;;;;0.63;0.63;;;;;;;23.04;35.38;100542.41;7397012;19;20017;-55
2024/02/20 07:49:15;;;;;;;6.13;0.90;;;;;;;17.28;51.40;100554.88;7396222;19;20033;-54
2024/02/20 07:51:41;;;;;;;1.10;0.90;;;;;;;15.81;71.97;100547.06;7398926;19;20015;-55
2024/02/20 07:54:07;;;;;;;1.38;0.60;;;;;;;15.05;85.54;100537.19;7397438;19;20414;-54
2024/02/20 07:56:33;;;;;;;0.40;0.40;;;;;;;14.56;94.53;100531.66;7397929;19;20033;-55
2024/02/20 07:58:59;;;;;;;16.27;1.33;;;;;;;14.29;100.00;100541.16;7397370;19;20078;-55
2024/02/20 08:01:26;;;;;;;0.10;0.00;;;;;;;14.19;100.00;100541.72;7399215;19;20042;-55
2024/02/20 08:03:52;;;;;;;4.03;1.73;;;;;;;14.12;100.00;100542.13;7397232;19;20031;-55
2024/02/20 08:06:22;;;;;;;4.50;1.13;;;;;;;14.09;100.00;100532.66;7394859;19;20022;-55
2024/02/20 08:08:49;;;;;;;0.47;0.20;;;;;;;14.10;100.00;100525.00;7392231;19;20025;-54
2024/02/20 08:11:15;;;;;;;0.57;0.40;;;;;;;14.12;100.00;100512.06;7396477;19;20015;-55
2024/02/20 08:13:43;;;;;;;0.35;0.35;;;;;;;14.15;100.00;100519.50;7398157;19;20025;-55
2024/02/20 08:16:13;;;;;;;1.23;1.00;;;;;;;14.21;100.00;100522.41;7397936;19;20022;-56
2024/02/20 08:18:40;;;;;;;0.22;0.10;;;;;;;14.22;100.00;100537.97;7395226;19;20015;-56
2024/02/20 08:21:07;;;;;;;1.75;0.52;;;;;;;14.29;100.00;100543.22;7396162;19;20014;-56
2024/02/20 08:23:35;;;;;;;0.77;0.30;;;;;;;14.35;100.00;100549.66;7395533;19;20026;-55
2024/02/20 08:26:03;;;;;;;4.32;0.77;;;;;;;14.41;100.00;100539.31;7395326;19;20025;-55
2024/02/20 08:28:30;;;;;;;15.43;1.30;;;;;;;14.46;100.00;100527.44;7394170;19;20011;-56
2024/02/20 08:30:57;;;;;;;6.82;0.40;;;;;;;14.52;100.00;100521.91;7396333;19;20530;-55
2024/02/20 08:33:23;;;;;;;0.45;0.40;;;;;;;14.57;100.00;100533.22;7399839;19;20478;-55
2024/02/20 08:35:49;;;;;;;0.20;0.20;;;;;;;14.66;100.00;100541.47;7399613;19;20070;-56
2024/02/20 08:38:16;;;;;;;0.50;0.50;;;;;;;14.76;100.00;100528.91;7395189;19;20025;-55
2024/02/20 08:40:42;;;;;;;6.68;0.43;;;;;;;14.84;100.00;100535.66;7396962;19;20036;-56
2024/02/20 08:43:08;;;;;;;0.57;0.28;;;;;;;14.92;100.00;100550.03;7397160;19;20022;-55
2024/02/20 08:45:34;;;;;;;0.75;0.32;;;;;;;15.00;100.00;100543.53;7398977;19;20348;-55
2024/02/20 08:48:01;;;;;;;3.95;1.33;;;;;;;15.09;100.00;100528.59;7395506;19;20370;-55
2024/02/20 08:50:28;;;;;;;0.25;0.25;;;;;;;15.13;100.00;100523.53;7395039;19;20007;-56
2024/02/20 08:52:55;;;;;;;1.50;0.88;;;;;;;15.12;100.00;100539.59;7395184;19;20016;-55
2024/02/20 08:55:21;;;;;;;0.40;0.30;;;;;;;15.12;100.00;100550.81;7397160;19;20014;-55
2024/02/20 08:57:47;;;;;;;5.13;1.85;;;;;;;15.15;100.00;100549.06;7396488;19;20093;-55
2024/02/20 09:00:13;;;;;;;1.90;0.52;;;;;;;15.22;100.00;100550.69;7394731;19;20010;-55
2024/02/20 09:02:40;;;;;;;0.50;0.20;;;;;;;15.28;100.00;100546.69;7396918;19;20354;-55
2024/02/20 09:05:10;;;;;;;3.10;0.20;;;;;;;15.50;100.00;100535.00;7395499;19;20014;-56
2024/02/20 09:07:37;;;;;;;0.10;0.10;;;;;;;15.38;100.00;100513.63;7397791;19;20343;-55
2024/02/20 09:10:04;;;;;;;3.60;0.85;;;;;;;15.40;100.00;100525.16;7395775;19;20346;-54
2024/02/20 09:12:32;;;;;;;6.18;1.20;;;;;;;15.35;100.00;100526.63;7396534;19;20400;-54
2024/02/20 09:15:00;;;;;;;0.63;0.30;;;;;;;15.39;100.00;100543.25;7395545;19;20021;-55
2024/02/20 09:17:26;;;;;;;2.90;0.82;;;;;;;15.42;100.00;100533.84;7395390;19;20021;-55
2024/02/20 09:19:52;;;;;;;4.25;1.02;;;;;;;15.46;100.00;100534.44;7392979;19;20469;-55
2024/02/20 09:22:19;;;;;;;1.35;0.40;;;;;;;26.92;82.03;100513.41;7394298;19;20093;-55
2024/02/20 09:24:45;;;;;;;2.45;0.60;;;;;;;31.47;43.83;100510.13;7393051;19;20014;-55
2024/02/20 09:27:12;;;;;;;3.13;0.55;;;;;;;19.50;94.78;100528.28;7394486;19;20014;-55
2024/02/20 09:29:39;;;;;;;2.30;0.55;;;;;;;20.45;99.44;100514.25;7395303;19;20069;-55
2024/02/20 09:32:05;;;;;;;0.85;0.30;;;;;;;16.99;100.00;100498.94;7395452;19;20023;-55
2024/02/20 09:34:31;;;;;;;2.70;0.35;;;;;;;17.40;100.00;100466.34;7395467;19;20007;-55
2024/02/20 09:36:57;;;;;;;0.43;0.10;;;;;;;18.67;100.00;100462.81;7392436;19;20017;-55
2024/02/20 09:39:23;;;;;;;0.10;0.10;;;;;;;33.56;46.51;100444.09;7394881;19;20025;-55
2024/02/20 09:41:52;;;;;;;2.28;0.95;;;;;;;36.63;36.31;100431.84;7394727;19;20014;-55
2024/02/20 09:44:20;;;;;;;5.07;0.40;;;;;;;37.67;33.44;100438.56;7395200;19;20014;-55
2024/02/20 09:46:51;;;;;;;0.30;0.10;;;;;;;38.25;31.19;100432.63;7394836;19;20011;-55
2024/02/20 09:49:18;;;;;;;0.10;0.10;;;;;;;38.77;29.93;100445.88;7395220;19;20019;-56
2024/02/20 09:51:46;;;;;;;0.15;0.15;;;;;;;39.03;29.28;100437.53;7394035;19;20010;-58
2024/02/20 09:54:16;;;;;;;0.95;0.50;;;;;;;39.37;28.79;100447.72;7395795;19;20334;-56
2024/02/20 09:56:45;;;;;;;0.67;0.43;;;;;;;39.30;27.92;100454.72;7393304;19;20349;-56
2024/02/20 09:59:15;;;;;;;0.10;0.10;;;;;;;39.51;27.59;100459.94;7391638;19;20263;-59
2024/02/20 10:01:42;;;;;;;10.35;1.42;;;;;;;39.60;27.05;100458.88;7392357;19;20019;-57
2024/02/20 10:04:08;;;;;;;1.27;0.40;;;;;;;39.56;27.25;100458.72;7392256;19;20367;-57
2024/02/20 10:06:34;;;;;;;0.22;0.22;;;;;;;39.40;27.04;100458.78;7396921;19;20366;-57
2024/02/20 10:09:01;;;;;;;0.20;0.20;;;;;;;39.47;27.00;100462.69;7393911;19;20025;-58
2024/02/20 10:11:27;;;;;;;0.10;0.10;;;;;;;39.48;26.59;100461.28;7394395;19;20022;-56
2024/02/20 10:13:55;;;;;;;0.10;0.10;;;;;;;39.44;25.87;100463.28;7391863;19;20021;-56
2024/02/20 10:16:22;;;;;;;3.90;0.45;;;;;;;39.77;25.73;100455.19;7395882;19;20032;-56
2024/02/20 10:18:57;;;;;;;1.20;0.22;;;;;;;39.82;25.55;100456.09;7392227;19;20080;-56
2024/02/20 10:21:25;;;;;;;0.10;0.00;;;;;;;39.99;26.00;100459.00;7392672;19;20022;-56
2024/02/20 10:24:05;;;;;;;0.73;0.20;;;;;;;39.67;25.64;100456.97;7392820;19;20015;-56
2024/02/20 10:26:35;;;;;;;0.95;0.75;;;;;;;39.78;25.76;100450.88;7396657;19;20082;-57
2024/02/20 10:29:05;;;;;;;0.13;0.10;;;;;;;40.06;25.16;100428.63;7391502;19;20010;-56
2024/02/20 10:31:32;;;;;;;1.02;0.10;;;;;;;40.07;25.01;100421.38;7396071;19;20015;-57
2024/02/20 10:34:00;;;;;;;0.00;0.00;;;;;;;39.86;24.81;100416.16;7400128;19;20382;-56
2024/02/20 10:36:26;;;;;;;0.10;0.10;;;;;;;40.01;24.77;100418.22;7403391;19;20014;-56
2024/02/20 10:39:07;;;;;;;1.85;0.08;;;;;;;40.07;24.82;100411.84;7400042;19;20011;-55
2024/02/20 10:41:33;;;;;;;1.27;0.20;;;;;;;40.01;24.67;100415.31;7400118;19;20007;-56
2024/02/20 10:43:59;;;;;;;0.20;0.20;;;;;;;40.08;24.82;100430.88;7400214;19;20404;-56
2024/02/20 10:46:26;;;;;;;0.57;0.43;;;;;;;40.28;24.08;100425.03;7401057;19;20019;-56
2024/02/20 10:48:59;;;;;;;0.00;0.00;;;;;;;40.25;23.71;100426.38;7396289;19;20010;-56
2024/02/20 10:51:28;;;;;;;1.75;0.93;;;;;;;40.28;23.99;100419.97;7400256;19;20089;-56
2024/02/20 10:53:55;;;;;;;1.30;0.32;;;;;;;40.42;23.90;100416.81;7399810;19;20007;-56
2024/02/20 10:56:22;;;;;;;5.68;0.73;;;;;;;40.51;23.48;100406.91;7399571;19;20353;-56
2024/02/20 10:58:51;;;;;;;2.92;1.05;;;;;;;40.50;23.53;100408.38;7401615;19;20007;-56
2024/02/20 11:01:18;;;;;;;1.17;0.32;;;;;;;40.57;23.58;100410.81;7397003;19;20010;-55
2024/02/20 11:03:46;;;;;;;2.97;0.77;;;;;;;40.89;23.20;100404.63;7400544;19;20018;-56
2024/02/20 11:06:13;;;;;;;2.95;0.90;;;;;;;41.10;23.14;100395.09;7395066;19;20015;-55
2024/02/20 11:08:39;;;;;;;2.28;0.85;;;;;;;41.06;22.75;100394.97;7393838;19;20002;-55
2024/02/20 11:11:13;;;;;;;4.75;1.02;;;;;;;41.16;23.02;100396.03;7398275;19;20011;-55
2024/02/20 11:13:40;;;;;;;1.60;0.70;;;;;;;24.26;39.42;100406.75;7397056;19;20026;-55
2024/02/20 11:16:14;;;;;;;6.95;2.38;;;;;;;19.90;67.88;100407.25;7397097;19;20028;-55
2024/02/20 11:18:54;;;;;;;3.53;1.55;;;;;;;18.51;87.05;100384.66;7395359;19;20027;-55
2024/02/20 11:21:31;;;;;;;8.63;2.00;;;;;;;17.85;94.78;100383.47;7394146;19;20043;-55
2024/02/20 11:24:10;;;;;;;11.02;1.65;;;;;;;17.59;99.20;100393.44;7399013;19;20011;-55